Time;durP1;ratioP1;P1;durP2;ratioP2;P2;SDS_P1;SDS_P2;PMS_P1;PMS_P2;Temp;Humidity;BMP_temperature;BMP_pressure;BME280_temperature;BME280_humidity;BME280_pressure;Samples;Min_cycle;Max_cycle;Signal;HPM_P1;HPM_P2
2022/03/03 00:02:13;;;;;;;;;;;;;;;5.57;36.94;100084.34;4417271;32;19985;-79
2022/03/03 00:04:41;;;;;;;;;;;;;;;5.55;37.53;100088.56;4426545;32;19974;-77
2022/03/03 00:07:07;;;;;;;;;;;;;;;5.49;36.91;100090.88;4420412;32;20033;-75
2022/03/03 00:09:34;;;;;;;;;;;;;;;5.48;36.82;100094.25;4424917;32;20036;-75
2022/03/03 00:12:01;;;;;;;;;;;;;;;5.56;37.46;100090.31;4415994;32;20003;-75
2022/03/03 00:14:28;;;;;;;;;;;;;;;5.39;36.70;100101.56;4416431;32;20020;-74
2022/03/03 00:16:55;;;;;;;;;;;;;;;5.40;37.63;100090.50;4415887;32;19982;-75
2022/03/03 00:19:22;;;;;;;;;;;;;;;5.17;38.00;100093.78;4414723;32;19993;-74
2022/03/03 00:21:49;;;;;;;;;;;;;;;5.47;38.09;100089.94;4417519;32;19989;-75
2022/03/03 00:24:16;;;;;;;;;;;;;;;5.33;38.09;100096.22;4439692;32;19981;-75
2022/03/03 00:26:43;;;;;;;;;;;;;;;5.27;37.76;100090.81;4425319;32;19993;-75
2022/03/03 00:29:09;;;;;;;;;;;;;;;5.31;37.27;100082.44;4422562;32;20334;-75
2022/03/03 00:31:36;;;;;;;;;;;;;;;5.17;37.79;100086.09;4431095;32;19978;-78
2022/03/03 00:34:04;;;;;;;;;;;;;;;5.47;37.56;100086.50;4430035;32;19981;-74
2022/03/03 00:36:31;;;;;;;;;;;;;;;5.32;38.21;100095.31;4420841;32;20380;-74
2022/03/03 00:38:57;;;;;;;;;;;;;;;5.19;38.19;100087.91;4431477;32;19981;-75
2022/03/03 00:41:25;;;;;;;;;;;;;;;5.27;38.15;100085.69;4431144;32;19981;-75
2022/03/03 00:43:52;;;;;;;;;;;;;;;5.25;38.00;100092.44;4427738;32;19978;-75
2022/03/03 00:46:19;;;;;;;;;;;;;;;5.04;38.27;100092.41;4416020;32;20363;-75
2022/03/03 00:48:46;;;;;;;;;;;;;;;5.08;38.44;100095.19;4415281;32;19974;-75
2022/03/03 00:51:13;;;;;;;;;;;;;;;4.93;38.27;100093.66;4400766;32;20418;-75
2022/03/03 00:53:39;;;;;;;;;;;;;;;5.09;37.64;100081.53;4390095;32;20431;-75
2022/03/03 00:56:06;;;;;;;;;;;;;;;5.16;37.45;100086.91;4400201;32;19992;-77
2022/03/03 00:58:33;;;;;;;;;;;;;;;5.13;38.09;100078.28;4398068;32;20373;-73
2022/03/03 01:01:01;;;;;;;;;;;;;;;5.03;38.87;100076.12;4393136;32;20000;-74
2022/03/03 01:03:28;;;;;;;;;;;;;;;5.02;38.62;100079.53;4385549;32;20147;-74
2022/03/03 01:05:55;;;;;;;;;;;;;;;4.87;38.65;100072.06;4394042;32;20013;-75
2022/03/03 01:08:23;;;;;;;;;;;;;;;5.12;38.65;100070.53;4385210;32;20084;-74
2022/03/03 01:10:50;;;;;;;;;;;;;;;4.84;38.95;100069.34;4386472;32;19990;-75
2022/03/03 01:13:17;;;;;;;;;;;;;;;4.85;39.27;100071.13;4403699;32;20026;-75
2022/03/03 01:15:44;;;;;;;;;;;;;;;4.90;39.24;100068.75;4396730;32;20747;-74
2022/03/03 01:18:11;;;;;;;;;;;;;;;4.85;39.38;100066.00;4396491;32;20040;-74
2022/03/03 01:20:38;;;;;;;;;;;;;;;4.81;38.84;100063.22;4385572;32;19983;-75
2022/03/03 01:23:04;;;;;;;;;;;;;;;4.85;39.21;100065.09;4386150;32;20069;-76
2022/03/03 01:25:31;;;;;;;;;;;;;;;4.79;38.85;100059.75;4395386;32;19974;-75
2022/03/03 01:27:58;;;;;;;;;;;;;;;4.76;39.31;100055.34;4385536;32;20404;-75
2022/03/03 01:30:25;;;;;;;;;;;;;;;4.85;38.88;100050.63;4385344;32;20731;-75
2022/03/03 01:32:52;;;;;;;;;;;;;;;4.54;40.22;100048.41;4393718;32;20035;-75
2022/03/03 01:35:19;;;;;;;;;;;;;;;4.76;40.08;100044.22;4401954;32;20328;-75
2022/03/03 01:37:45;;;;;;;;;;;;;;;4.66;40.19;100043.81;4400729;32;20287;-75
2022/03/03 01:40:13;;;;;;;;;;;;;;;4.73;39.11;100038.97;4400250;32;20032;-76
2022/03/03 01:42:39;;;;;;;;;;;;;;;4.55;40.03;100042.47;4386516;32;19981;-75
2022/03/03 01:45:07;;;;;;;;;;;;;;;4.46;40.06;100043.75;4400639;32;20335;-74
2022/03/03 01:47:34;;;;;;;;;;;;;;;4.50;40.53;100035.38;4411316;32;20049;-75
2022/03/03 01:50:01;;;;;;;;;;;;;;;4.61;39.98;100037.59;4400570;32;19990;-75
2022/03/03 01:52:29;;;;;;;;;;;;;;;4.70;39.38;100031.13;4405114;32;19989;-74
2022/03/03 01:54:56;;;;;;;;;;;;;;;4.55;39.68;100034.78;4413344;32;20672;-75
2022/03/03 01:57:28;;;;;;;;;;;;;;;4.25;39.87;100028.34;4414411;32;20020;-75
2022/03/03 01:59:55;;;;;;;;;;;;;;;4.27;40.85;100034.38;4414093;32;19990;-76
2022/03/03 02:02:22;;;;;;;;;;;;;;;4.44;40.30;100025.78;4413975;32;19986;-75
2022/03/03 02:04:49;;;;;;;;;;;;;;;4.39;40.67;100022.12;4424255;32;20000;-76
2022/03/03 02:07:16;;;;;;;;;;;;;;;4.23;41.14;100020.56;4425673;32;20020;-75
2022/03/03 02:09:43;;;;;;;;;;;;;;;4.33;40.73;100025.28;4418065;32;20045;-75
2022/03/03 02:12:10;;;;;;;;;;;;;;;4.37;39.90;100018.59;4417075;32;20026;-75
2022/03/03 02:14:45;;;;;;;;;;;;;;;4.17;40.44;100016.03;4422134;32;19978;-75
2022/03/03 02:17:12;;;;;;;;;;;;;;;4.20;40.68;100008.50;4426510;32;20532;-75
2022/03/03 02:19:39;;;;;;;;;;;;;;;4.11;40.75;100014.88;4434929;32;20013;-74
2022/03/03 02:22:06;;;;;;;;;;;;;;;4.01;40.45;100008.47;4384466;32;20763;-76
2022/03/03 02:24:33;;;;;;;;;;;;;;;4.34;40.41;100008.22;4382976;32;19983;-75
2022/03/03 02:27:00;;;;;;;;;;;;;;;4.18;41.30;100001.56;4385318;32;19974;-75
2022/03/03 02:29:28;;;;;;;;;;;;;;;4.17;41.18;99995.53;4385124;32;20026;-75
2022/03/03 02:31:55;;;;;;;;;;;;;;;4.30;40.72;99996.09;4384705;32;19979;-75
2022/03/03 02:34:22;;;;;;;;;;;;;;;4.10;41.30;100003.78;4384851;32;19997;-75
2022/03/03 02:36:49;;;;;;;;;;;;;;;4.09;41.01;100007.16;4375711;32;20031;-76
2022/03/03 02:39:16;;;;;;;;;;;;;;;4.04;41.13;100003.50;4368729;32;20010;-75
2022/03/03 02:41:43;;;;;;;;;;;;;;;3.93;40.83;99994.47;4369600;32;20017;-75
2022/03/03 02:44:09;;;;;;;;;;;;;;;4.09;40.62;100006.28;4378602;32;20009;-75
2022/03/03 02:46:37;;;;;;;;;;;;;;;4.09;40.60;100007.16;4376085;32;19991;-74
2022/03/03 02:49:05;;;;;;;;;;;;;;;3.95;41.04;100003.09;4369631;32;19991;-75
2022/03/03 02:51:31;;;;;;;;;;;;;;;4.03;41.11;100006.87;4368269;32;20308;-73
2022/03/03 02:53:58;;;;;;;;;;;;;;;3.98;40.85;100005.78;4380959;32;19993;-74
2022/03/03 02:56:25;;;;;;;;;;;;;;;3.99;41.73;100005.00;4379922;32;20049;-75
2022/03/03 02:58:53;;;;;;;;;;;;;;;4.02;41.56;99994.91;4373239;32;19987;-75
2022/03/03 03:01:20;;;;;;;;;;;;;;;4.10;41.08;99993.53;4369374;32;19979;-75
2022/03/03 03:03:47;;;;;;;;;;;;;;;3.80;41.56;99992.13;4376065;32;20012;-75
2022/03/03 03:06:14;;;;;;;;;;;;;;;3.90;41.00;99989.22;4371144;32;20035;-74
2022/03/03 03:08:42;;;;;;;;;;;;;;;3.89;41.22;99987.44;4369576;32;20325;-75
2022/03/03 03:11:09;;;;;;;;;;;;;;;3.64;42.22;99980.38;4411359;32;20004;-75
2022/03/03 03:13:35;;;;;;;;;;;;;;;3.96;41.34;99986.94;4413061;32;20068;-74
2022/03/03 03:16:03;;;;;;;;;;;;;;;3.85;41.21;99995.81;4401099;32;20028;-74
2022/03/03 03:18:30;;;;;;;;;;;;;;;3.70;41.46;99990.84;4399196;32;20781;-74
2022/03/03 03:20:57;;;;;;;;;;;;;;;3.66;41.70;99983.84;4401399;32;19978;-75
2022/03/03 03:23:24;;;;;;;;;;;;;;;3.75;41.91;99983.41;4409406;32;19982;-74
2022/03/03 03:25:51;;;;;;;;;;;;;;;3.81;41.94;99983.69;4408458;32;20006;-75
2022/03/03 03:28:18;;;;;;;;;;;;;;;3.34;42.84;99990.03;4419171;32;20030;-75
2022/03/03 03:30:45;;;;;;;;;;;;;;;3.30;42.99;99994.13;4437943;32;19973;-74
2022/03/03 03:33:31;;;;;;;;;;;;;;;3.40;42.69;99996.31;4428109;32;19994;-76
2022/03/03 03:35:59;;;;;;;;;;;;;;;3.38;43.03;99994.47;4424848;32;19989;-75
2022/03/03 03:38:26;;;;;;;;;;;;;;;3.46;42.91;99991.47;4416904;32;20381;-75
2022/03/03 03:40:53;;;;;;;;;;;;;;;3.54;42.53;99994.37;4428005;32;20692;-74
2022/03/03 03:43:20;;;;;;;;;;;;;;;3.45;42.74;99991.44;4433704;32;20032;-75
2022/03/03 03:45:47;;;;;;;;;;;;;;;3.49;42.67;99996.75;4419384;32;19977;-75
2022/03/03 03:48:13;;;;;;;;;;;;;;;3.69;42.18;99989.97;4428189;32;19986;-75
2022/03/03 03:50:40;;;;;;;;;;;;;;;3.78;41.86;99988.66;4416439;32;20255;-76
2022/03/03 03:53:07;;;;;;;;;;;;;;;3.51;42.60;99989.16;4425409;32;20057;-75
2022/03/03 03:55:34;;;;;;;;;;;;;;;3.53;41.78;99995.19;4416491;32;19985;-75
2022/03/03 03:58:01;;;;;;;;;;;;;;;3.37;42.22;99995.28;4416755;32;20312;-75
2022/03/03 04:00:28;;;;;;;;;;;;;;;3.11;43.15;99997.50;4416129;32;19978;-77
2022/03/03 04:02:55;;;;;;;;;;;;;;;3.32;42.50;99996.75;4416665;32;20365;-74
2022/03/03 04:05:22;;;;;;;;;;;;;;;3.01;43.61;100000.41;4416885;32;19990;-74
2022/03/03 04:07:49;;;;;;;;;;;;;;;3.35;42.25;99986.66;4119013;32;10258264;-74
2022/03/03 04:10:16;;;;;;;;;;;;;;;3.37;42.37;99985.06;4429908;32;20271;-76
2022/03/03 04:12:42;;;;;;;;;;;;;;;3.46;41.90;99990.59;4421071;32;19986;-75
2022/03/03 04:15:09;;;;;;;;;;;;;;;3.39;42.46;99984.34;4423800;32;20357;-75
2022/03/03 04:17:37;;;;;;;;;;;;;;;3.42;42.38;99988.72;4417578;32;20024;-76
2022/03/03 04:20:04;;;;;;;;;;;;;;;3.54;41.87;99978.16;4415397;32;20031;-74
2022/03/03 04:22:31;;;;;;;;;;;;;;;3.28;42.35;99974.38;4416191;32;19970;-74
2022/03/03 04:24:58;;;;;;;;;;;;;;;3.49;42.10;99985.63;4422563;32;20001;-74
2022/03/03 04:27:26;;;;;;;;;;;;;;;3.40;42.11;99980.97;4430341;32;20616;-75
2022/03/03 04:29:53;;;;;;;;;;;;;;;3.28;42.42;99976.94;4430508;32;20662;-75
2022/03/03 04:32:20;;;;;;;;;;;;;;;3.35;41.95;99981.53;4416277;32;20035;-75
2022/03/03 04:34:47;;;;;;;;;;;;;;;3.15;43.21;99978.03;4415667;32;19992;-75
2022/03/03 04:37:13;;;;;;;;;;;;;;;3.31;42.47;99966.84;4414853;32;19998;-75
2022/03/03 04:39:41;;;;;;;;;;;;;;;3.09;43.09;99963.28;4418162;32;19997;-75
2022/03/03 04:42:08;;;;;;;;;;;;;;;3.17;43.32;99967.09;4431702;32;19975;-75
2022/03/03 04:44:34;;;;;;;;;;;;;;;3.25;42.38;99965.78;4423033;32;19974;-75
2022/03/03 04:47:02;;;;;;;;;;;;;;;3.16;43.04;99975.59;4416148;32;19978;-75
2022/03/03 04:49:28;;;;;;;;;;;;;;;3.34;42.34;99969.56;4416818;32;20190;-75
2022/03/03 04:51:56;;;;;;;;;;;;;;;3.25;42.32;99970.91;4416289;32;20027;-75
2022/03/03 04:54:23;;;;;;;;;;;;;;;3.33;42.01;99968.69;4430196;32;19989;-74
2022/03/03 04:56:51;;;;;;;;;;;;;;;3.51;41.62;99968.69;4426638;32;19985;-75
2022/03/03 04:59:18;;;;;;;;;;;;;;;3.28;42.06;99974.38;4428171;32;20431;-74
2022/03/03 05:01:45;;;;;;;;;;;;;;;3.35;42.00;99968.75;4416214;32;19974;-74
2022/03/03 05:04:12;;;;;;;;;;;;;;;3.32;42.18;99964.38;4416533;32;20002;-75
2022/03/03 05:06:44;;;;;;;;;;;;;;;3.33;42.29;99962.69;4415939;32;20477;-74
2022/03/03 05:09:11;;;;;;;;;;;;;;;3.29;42.11;99959.12;4416452;32;20037;-75
2022/03/03 05:11:38;;;;;;;;;;;;;;;3.19;42.67;99954.34;4427495;32;20331;-74
2022/03/03 05:14:05;;;;;;;;;;;;;;;3.15;42.73;99968.69;4427473;32;19990;-74
2022/03/03 05:16:32;;;;;;;;;;;;;;;3.30;42.35;99962.56;4416117;32;19982;-75
2022/03/03 05:19:02;;;;;;;;;;;;;;;3.25;42.41;99960.66;4415956;32;20348;-75
2022/03/03 05:21:30;;;;;;;;;;;;;;;3.26;42.41;99962.41;4416027;32;19974;-74
2022/03/03 05:23:58;;;;;;;;;;;;;;;3.40;42.19;99964.72;4436488;32;20003;-74
2022/03/03 05:26:24;;;;;;;;;;;;;;;3.50;41.91;99966.91;4431639;32;20035;-75
2022/03/03 05:28:51;;;;;;;;;;;;;;;3.61;41.71;99960.63;4429430;32;20008;-74
2022/03/03 05:31:18;;;;;;;;;;;;;;;3.13;42.87;99969.44;4431028;32;19991;-75
2022/03/03 05:33:45;;;;;;;;;;;;;;;3.04;43.01;99964.75;4428846;32;19996;-76
2022/03/03 05:36:12;;;;;;;;;;;;;;;3.16;42.93;99975.59;4433821;32;20032;-76
2022/03/03 05:38:39;;;;;;;;;;;;;;;3.23;43.28;99969.06;4413287;32;20095;-76
2022/03/03 05:41:05;;;;;;;;;;;;;;;3.14;43.42;99974.62;4414865;32;19981;-76
2022/03/03 05:43:33;;;;;;;;;;;;;;;3.20;43.38;99968.94;4424967;32;19981;-75
2022/03/03 05:46:00;;;;;;;;;;;;;;;2.83;44.41;99963.72;4417375;32;19996;-76
2022/03/03 05:48:27;;;;;;;;;;;;;;;3.18;43.48;99970.53;4415898;32;19997;-76
2022/03/03 05:50:55;;;;;;;;;;;;;;;3.35;43.27;99971.31;4416852;32;19992;-76
2022/03/03 05:53:22;;;;;;;;;;;;;;;3.47;42.88;99961.66;4433447;32;19986;-76
2022/03/03 05:55:50;;;;;;;;;;;;;;;3.63;42.48;99965.78;4427096;32;20047;-75
2022/03/03 05:58:26;;;;;;;;;;;;;;;3.76;42.38;99960.41;4415371;32;19977;-75
2022/03/03 06:00:54;;;;;;;;;;;;;;;3.65;42.97;99962.50;4423705;32;20402;-77
2022/03/03 06:03:23;;;;;;;;;;;;;;;3.83;42.55;99969.25;4427128;32;19994;-75
2022/03/03 06:05:53;;;;;;;;;;;;;;;3.91;42.17;99966.22;4432375;32;20039;-76
2022/03/03 06:08:23;;;;;;;;;;;;;;;3.80;42.80;99971.66;4417908;32;20347;-75
2022/03/03 06:10:50;;;;;;;;;;;;;;;4.00;41.98;99976.00;4415971;32;20314;-74
2022/03/03 06:13:24;;;;;;;;;;;;;;;3.66;43.06;99977.03;4415387;32;19993;-75
2022/03/03 06:15:51;;;;;;;;;;;;;;;3.99;42.49;99987.06;4423856;32;19973;-75
2022/03/03 06:18:19;;;;;;;;;;;;;;;4.17;42.02;99975.06;4417048;32;20003;-75
2022/03/03 06:20:46;;;;;;;;;;;;;;;4.19;42.14;99978.56;4433705;32;20289;-74
2022/03/03 06:23:13;;;;;;;;;;;;;;;4.32;42.24;99973.97;4434452;32;19993;-78
2022/03/03 06:25:40;;;;;;;;;;;;;;;4.40;41.47;99973.50;4416075;32;20051;-77
2022/03/03 06:28:08;;;;;;;;;;;;;;;4.60;40.87;99970.91;4431271;32;19997;-75
2022/03/03 06:30:36;;;;;;;;;;;;;;;4.47;41.39;99964.38;4441985;32;20691;-74
2022/03/03 06:33:03;;;;;;;;;;;;;;;4.59;40.96;99970.00;4426850;32;19986;-76
2022/03/03 06:35:36;;;;;;;;;;;;;;;4.52;41.14;99973.13;4399971;32;20020;-75
2022/03/03 06:38:04;;;;;;;;;;;;;;;4.51;41.63;99971.37;4400294;32;20080;-75
2022/03/03 06:40:31;;;;;;;;;;;;;;;4.78;41.14;99974.22;4397167;32;20017;-75
2022/03/03 06:43:00;;;;;;;;;;;;;;;4.78;41.03;99981.91;4393870;32;19998;-75
2022/03/03 06:45:28;;;;;;;;;;;;;;;5.04;40.79;99980.44;4399632;32;20013;-75
2022/03/03 06:47:55;;;;;;;;;;;;;;;4.93;40.83;99986.78;4391920;32;20033;-75
2022/03/03 06:50:22;;;;;;;;;;;;;;;5.02;40.82;99992.31;4399088;32;20565;-75
2022/03/03 06:52:49;;;;;;;;;;;;;;;5.26;40.41;99989.81;4389429;32;20002;-75
2022/03/03 06:55:20;;;;;;;;;;;;;;;5.39;40.01;99993.75;4389049;32;19995;-76
2022/03/03 06:57:49;;;;;;;;;;;;;;;5.31;39.82;99984.91;4400863;32;19998;-76
2022/03/03 07:00:17;;;;;;;;;;;;;;;5.28;40.91;99989.91;4389501;32;19974;-74
2022/03/03 07:02:46;;;;;;;;;;;;;;;5.51;39.81;99983.97;4364895;32;789065;-74
2022/03/03 07:05:14;;;;;;;;;;;;;;;5.80;38.82;99984.19;4400530;32;20024;-74
2022/03/03 07:07:42;;;;;;;;;;;;;;;5.98;39.09;99982.34;4389721;32;19990;-74
2022/03/03 07:10:10;;;;;;;;;;;;;;;6.20;38.30;99989.12;4388474;32;19979;-76
2022/03/03 07:12:37;;;;;;;;;;;;;;;6.57;37.53;99984.41;4389112;32;20032;-73
2022/03/03 07:15:04;;;;;;;;;;;;;;;7.04;36.51;99977.41;4389904;32;19979;-74
2022/03/03 07:17:35;;;;;;;;;;;;;;;7.19;36.48;99978.78;4387929;32;20343;-74
2022/03/03 07:20:03;;;;;;;;;;;;;;;7.40;36.07;99978.59;4391391;32;19974;-73
2022/03/03 07:22:35;;;;;;;;;;;;;;;7.42;35.71;99982.06;4400234;32;19993;-74
2022/03/03 07:25:11;;;;;;;;;;;;;;;7.75;35.53;99983.91;4389183;32;20321;-76
2022/03/03 07:27:39;;;;;;;;;;;;;;;8.13;35.02;99978.97;4409162;32;19986;-76
2022/03/03 07:30:07;;;;;;;;;;;;;;;8.50;34.59;99977.44;4374925;32;19996;-75
2022/03/03 07:32:38;;;;;;;;;;;;;;;8.22;35.32;99968.91;4415117;32;19982;-75
2022/03/03 07:35:09;;;;;;;;;;;;;;;8.74;34.19;99975.50;4415379;32;20008;-76
2022/03/03 07:37:39;;;;;;;;;;;;;;;9.12;32.78;99975.56;4409587;32;20428;-76
2022/03/03 07:40:07;;;;;;;;;;;;;;;9.48;32.60;99972.97;4415763;32;20350;-75
2022/03/03 07:42:34;;;;;;;;;;;;;;;9.61;32.23;99968.97;4408819;32;19990;-77
2022/03/03 07:45:03;;;;;;;;;;;;;;;9.85;31.97;99962.56;4422315;32;19998;-76
2022/03/03 07:47:33;;;;;;;;;;;;;;;10.15;31.37;99963.19;4403461;32;19997;-76
2022/03/03 07:50:00;;;;;;;;;;;;;;;10.49;32.23;99953.50;4412923;32;20045;-78
2022/03/03 07:52:28;;;;;;;;;;;;;;;10.33;30.98;99959.22;4412663;32;20012;-77
2022/03/03 07:54:55;;;;;;;;;;;;;;;10.38;31.99;99949.84;4409614;32;20001;-76
2022/03/03 07:57:22;;;;;;;;;;;;;;;10.75;30.99;99955.66;4410924;32;20049;-77
2022/03/03 07:59:55;;;;;;;;;;;;;;;10.83;30.62;99944.59;4412335;32;19981;-76
2022/03/03 08:02:22;;;;;;;;;;;;;;;10.91;30.69;99942.13;4423479;32;20274;-77
2022/03/03 08:04:50;;;;;;;;;;;;;;;11.27;30.43;99947.03;4414517;32;20330;-77
2022/03/03 08:07:18;;;;;;;;;;;;;;;11.35;30.24;99944.53;4415661;32;20008;-77
2022/03/03 08:09:48;;;;;;;;;;;;;;;11.47;30.35;99939.53;4410470;32;19987;-77
2022/03/03 08:12:19;;;;;;;;;;;;;;;11.20;30.49;99947.81;4401538;32;19986;-77
2022/03/03 08:14:46;;;;;;;;;;;;;;;11.61;29.80;99943.22;4419539;32;19986;-76
2022/03/03 08:17:14;;;;;;;;;;;;;;;11.68;29.70;99935.47;4412239;32;19990;-76
2022/03/03 08:19:44;;;;;;;;;;;;;;;11.76;29.33;99941.66;4415008;32;20358;-77
2022/03/03 08:22:14;;;;;;;;;;;;;;;11.92;29.17;99933.25;4416441;32;19978;-77
2022/03/03 08:24:43;;;;;;;;;;;;;;;12.18;28.71;99924.87;4416098;32;19974;-77
2022/03/03 08:27:11;;;;;;;;;;;;;;;12.36;28.83;99929.41;4416316;32;19982;-77
2022/03/03 08:29:38;;;;;;;;;;;;;;;12.61;28.56;99925.34;4407727;32;19977;-77
2022/03/03 08:32:10;;;;;;;;;;;;;;;12.71;27.54;99920.22;4404171;32;19982;-77
2022/03/03 08:34:55;;;;;;;;;;;;;;;11.96;29.85;99919.44;4409258;32;19988;-77
2022/03/03 08:37:28;;;;;;;;;;;;;;;12.20;29.69;99923.19;4400250;32;20031;-76
2022/03/03 08:39:55;;;;;;;;;;;;;;;12.25;28.44;99926.69;4416197;32;19974;-76
2022/03/03 08:42:26;;;;;;;;;;;;;;;11.75;28.90;99927.81;4423616;32;20063;-76
2022/03/03 08:44:54;;;;;;;;;;;;;;;12.33;29.58;99920.72;4418587;32;19996;-77
2022/03/03 08:47:22;;;;;;;;;;;;;;;12.15;29.50;99914.47;4411813;32;20569;-77
2022/03/03 08:49:50;;;;;;;;;;;;;;;12.35;28.00;99918.16;4400711;32;19983;-77
2022/03/03 08:52:20;;;;;;;;;;;;;;;11.75;29.05;99920.03;4420192;32;20418;-76
2022/03/03 08:54:47;;;;;;;;;;;;;;;12.18;28.29;99914.50;4401033;32;19978;-77
2022/03/03 08:57:13;;;;;;;;;;;;;;;12.29;28.11;99915.50;4402331;32;20043;-76
2022/03/03 08:59:40;;;;;;;;;;;;;;;12.12;28.52;99904.06;4402344;32;20036;-77
2022/03/03 09:02:07;;;;;;;;;;;;;;;11.36;29.70;99915.22;4406193;32;20490;-75
2022/03/03 09:04:34;;;;;;;;;;;;;;;11.85;28.31;99916.72;4413502;32;20813;-76
2022/03/03 09:07:01;;;;;;;;;;;;;;;11.92;28.50;99916.81;4418762;32;19974;-77
2022/03/03 09:09:28;;;;;;;;;;;;;;;12.02;28.09;99913.47;4402638;32;19983;-75
2022/03/03 09:12:01;;;;;;;;;;;;;;;12.14;27.98;99917.94;4419833;32;19978;-75
2022/03/03 09:14:28;;;;;;;;;;;;;;;12.06;28.28;99910.03;4415848;32;19982;-75
2022/03/03 09:16:55;;;;;;;;;;;;;;;11.37;29.19;99912.63;4404115;32;19982;-75
2022/03/03 09:19:22;;;;;;;;;;;;;;;11.36;30.82;99920.38;4388681;32;19985;-75
2022/03/03 09:21:49;;;;;;;;;;;;;;;11.81;28.85;99919.25;4406037;32;20000;-76
2022/03/03 09:24:15;;;;;;;;;;;;;;;11.35;29.52;99929.00;4417236;32;20070;-76
2022/03/03 09:26:43;;;;;;;;;;;;;;;11.39;29.99;99930.78;4415614;32;20350;-76
2022/03/03 09:29:09;;;;;;;;;;;;;;;11.44;29.71;99923.94;4416802;32;20045;-75
2022/03/03 09:31:36;;;;;;;;;;;;;;;11.73;29.44;99921.72;4423788;32;19986;-77
2022/03/03 09:34:03;;;;;;;;;;;;;;;11.38;30.24;99926.44;4417767;32;19981;-76
2022/03/03 09:36:30;;;;;;;;;;;;;;;10.65;30.95;99929.62;4434462;32;19978;-76
2022/03/03 09:38:57;;;;;;;;;;;;;;;11.59;29.80;99918.97;4415945;32;20049;-75
2022/03/03 09:41:24;;;;;;;;;;;;;;;11.59;29.81;99926.75;4415750;32;20027;-75
2022/03/03 09:43:51;;;;;;;;;;;;;;;11.48;29.68;99919.66;4418292;32;19990;-75
2022/03/03 09:46:19;;;;;;;;;;;;;;;11.69;29.80;99919.09;4414257;32;19970;-74
2022/03/03 09:48:46;;;;;;;;;;;;;;;11.93;28.98;99909.03;4390603;32;19979;-76
2022/03/03 09:51:13;;;;;;;;;;;;;;;11.84;29.98;99903.72;4372096;32;20037;-75
2022/03/03 09:53:49;;;;;;;;;;;;;;;11.95;30.33;99902.16;4387615;32;20387;-76
2022/03/03 09:56:16;;;;;;;;;;;;;;;11.60;31.39;99907.75;4381697;32;20011;-76
2022/03/03 09:58:43;;;;;;;;;;;;;;;11.59;29.88;99908.59;4369338;32;19967;-76
2022/03/03 10:01:11;;;;;;;;;;;;;;;11.40;30.99;99902.28;4370413;32;20688;-77
2022/03/03 10:03:38;;;;;;;;;;;;;;;11.28;29.91;99911.63;4382079;32;20009;-76
2022/03/03 10:06:05;;;;;;;;;;;;;;;12.44;28.38;99902.66;4387486;32;19993;-76
2022/03/03 10:08:32;;;;;;;;;;;;;;;12.52;28.12;99895.81;4372724;32;20021;-75
2022/03/03 10:11:00;;;;;;;;;;;;;;;12.22;28.67;99900.69;4381538;32;19987;-75
2022/03/03 10:13:43;;;;;;;;;;;;;;;11.83;28.16;99896.78;4371827;32;19993;-77
2022/03/03 10:16:10;;;;;;;;;;;;;;;11.57;29.32;99905.09;4376291;32;20031;-78
2022/03/03 10:18:37;;;;;;;;;;;;;;;11.55;30.43;99906.81;4369348;32;19989;-79
2022/03/03 10:21:07;;;;;;;;;;;;;;;11.64;29.99;99909.50;4374100;32;20029;-78
2022/03/03 10:23:35;;;;;;;;;;;;;;;11.30;30.45;99899.56;4381453;32;19979;-76
2022/03/03 10:26:11;;;;;;;;;;;;;;;11.65;29.71;99902.63;4383909;32;19997;-76
2022/03/03 10:28:38;;;;;;;;;;;;;;;11.70;29.87;99900.94;4384895;32;20317;-75
2022/03/03 10:31:13;;;;;;;;;;;;;;;11.38;30.53;99897.94;4384048;32;19986;-76
2022/03/03 10:33:41;;;;;;;;;;;;;;;11.59;29.46;99895.63;4385627;32;20324;-76
2022/03/03 10:36:15;;;;;;;;;;;;;;;12.07;29.37;99891.91;4397259;32;20023;-75
2022/03/03 10:38:46;;;;;;;;;;;;;;;12.45;28.75;99888.84;4413907;32;19977;-77
2022/03/03 10:41:51;;;;;;;;;;;;;;;12.68;27.86;99885.56;4424061;32;19977;-76
2022/03/03 10:44:23;;;;;;;;;;;;;;;12.35;28.19;99881.81;4428038;32;20011;-76
2022/03/03 10:47:00;;;;;;;;;;;;;;;11.74;29.05;99875.91;4428293;32;20027;-78
2022/03/03 10:49:28;;;;;;;;;;;;;;;11.69;29.57;99877.59;4420580;32;19978;-75
2022/03/03 10:51:55;;;;;;;;;;;;;;;11.95;28.62;99880.53;4426512;32;20020;-78
2022/03/03 10:54:21;;;;;;;;;;;;;;;12.20;29.20;99871.28;4426610;32;20000;-75
2022/03/03 10:57:06;;;;;;;;;;;;;;;11.75;29.88;99867.31;4415146;32;19977;-76
2022/03/03 10:59:32;;;;;;;;;;;;;;;12.28;28.55;99861.81;4426369;32;19978;-74
2022/03/03 11:01:59;;;;;;;;;;;;;;;12.09;29.98;99853.88;4424676;32;20354;-76
2022/03/03 11:04:27;;;;;;;;;;;;;;;12.60;28.11;99850.84;4420922;32;19993;-75
2022/03/03 11:06:54;;;;;;;;;;;;;;;12.67;28.19;99855.28;4428825;32;20864;-74
2022/03/03 11:09:21;;;;;;;;;;;;;;;12.50;29.84;99850.78;4421433;32;19970;-75
2022/03/03 11:11:48;;;;;;;;;;;;;;;11.94;29.12;99853.72;4422446;32;19989;-75
2022/03/03 11:14:14;;;;;;;;;;;;;;;12.01;30.46;99850.34;4420299;32;20374;-75
2022/03/03 11:16:41;;;;;;;;;;;;;;;12.25;29.41;99838.44;4426225;32;20041;-75
2022/03/03 11:19:12;;;;;;;;;;;;;;;11.78;30.39;99831.91;4433771;32;19981;-75
2022/03/03 11:21:39;;;;;;;;;;;;;;;12.35;29.29;99829.91;4426406;32;20027;-75
2022/03/03 11:24:08;;;;;;;;;;;;;;;12.39;28.58;99831.66;4414848;32;20000;-75
2022/03/03 11:26:42;;;;;;;;;;;;;;;12.18;28.92;99831.47;4425305;32;20024;-75
2022/03/03 11:29:10;;;;;;;;;;;;;;;11.71;29.81;99834.37;4429313;32;20027;-75
2022/03/03 11:31:38;;;;;;;;;;;;;;;11.97;30.55;99822.62;4423563;32;19981;-74
2022/03/03 11:34:26;;;;;;;;;;;;;;;12.37;29.83;99817.78;4435620;32;20350;-75
2022/03/03 11:37:02;;;;;;;;;;;;;;;12.06;30.94;99822.72;4427749;32;20031;-75
2022/03/03 11:39:46;;;;;;;;;;;;;;;12.05;31.31;99815.78;4418972;32;20491;-75
2022/03/03 11:42:18;;;;;;;;;;;;;;;12.14;29.50;99814.12;4423796;32;19979;-75
2022/03/03 11:44:44;;;;;;;;;;;;;;;12.36;28.75;99805.69;4423501;32;19977;-75
2022/03/03 11:47:25;;;;;;;;;;;;;;;12.03;28.81;99801.94;4428597;32;20031;-76
2022/03/03 11:49:59;;;;;;;;;;;;;;;12.15;28.51;99800.28;4421319;32;19977;-75
2022/03/03 11:52:26;;;;;;;;;;;;;;;12.12;29.73;99800.25;4419349;32;19977;-75
2022/03/03 11:54:57;;;;;;;;;;;;;;;12.42;28.28;99795.34;4416813;32;19973;-74
2022/03/03 11:57:27;;;;;;;;;;;;;;;12.63;28.37;99792.03;4417931;32;19989;-77
2022/03/03 12:00:03;;;;;;;;;;;;;;;13.12;27.43;99783.66;4423286;32;20476;-77
2022/03/03 12:02:40;;;;;;;;;;;;;;;13.07;28.76;99787.97;4426866;32;20030;-75
2022/03/03 12:05:26;;;;;;;;;;;;;;;12.90;28.17;99783.56;4427814;32;19981;-75
2022/03/03 12:07:59;;;;;;;;;;;;;;;12.71;29.51;99781.69;4425127;32;20022;-76
2022/03/03 12:10:26;;;;;;;;;;;;;;;12.23;29.79;99777.88;4417668;32;19985;-77
2022/03/03 12:13:13;;;;;;;;;;;;;;;12.41;30.22;99777.16;4428177;32;20879;-77
2022/03/03 12:15:40;;;;;;;;;;;;;;;11.67;29.95;99775.59;4416803;32;19977;-76
2022/03/03 12:18:08;;;;;;;;;;;;;;;11.77;31.26;99772.22;4434645;32;20507;-77
2022/03/03 12:20:40;;;;;;;;;;;;;;;11.99;30.20;99762.97;4427214;32;19986;-75
2022/03/03 12:23:31;;;;;;;;;;;;;;;12.55;29.26;99760.81;4425649;32;20062;-75
2022/03/03 12:25:59;;;;;;;;;;;;;;;12.64;29.42;99761.75;4430173;32;20031;-73
2022/03/03 12:28:27;;;;;;;;;;;;;;;12.77;28.97;99755.78;4424812;32;20000;-75
2022/03/03 12:30:54;;;;;;;;;;;;;;;13.00;27.74;99754.16;4436657;32;20271;-74
2022/03/03 12:33:24;;;;;;;;;;;;;;;13.06;27.80;99758.50;4423915;32;20065;-73
2022/03/03 12:35:52;;;;;;;;;;;;;;;12.92;28.36;99749.78;4423731;32;19974;-73
2022/03/03 12:38:19;;;;;;;;;;;;;;;12.04;29.50;99764.75;4433912;32;20002;-73
2022/03/03 12:40:46;;;;;;;;;;;;;;;12.24;29.83;99764.03;4433985;32;19984;-74
2022/03/03 12:43:15;;;;;;;;;;;;;;;12.39;29.13;99756.38;4425440;32;20011;-75
2022/03/03 12:45:43;;;;;;;;;;;;;;;12.17;29.61;99757.06;4426607;32;20022;-73
2022/03/03 12:48:10;;;;;;;;;;;;;;;12.71;28.06;99758.34;4435106;32;19989;-73
2022/03/03 12:50:37;;;;;;;;;;;;;;;12.85;28.27;99756.66;4425746;32;20262;-73
2022/03/03 12:53:10;;;;;;;;;;;;;;;12.93;27.58;99751.53;4425614;32;20023;-72
2022/03/03 12:55:44;;;;;;;;;;;;;;;13.00;28.74;99743.75;4424090;32;19977;-72
2022/03/03 12:58:11;;;;;;;;;;;;;;;13.19;27.59;99743.84;4437665;32;19977;-74